sensor_id;sensor_type;location;lat;lon;timestamp;pressure;altitude;pressure_sealevel;temperature;humidity
49178;BME280;35016;55.674;37.468;2023-02-03T00:01:16;98247.03;;;0.63;73.11
49178;BME280;35016;55.674;37.468;2023-02-03T00:03:43;98259.94;;;0.66;72.90
49178;BME280;35016;55.674;37.468;2023-02-03T00:06:10;98255.19;;;0.68;73.07
49178;BME280;35016;55.674;37.468;2023-02-03T00:08:39;98254.72;;;0.71;72.50
49178;BME280;35016;55.674;37.468;2023-02-03T00:11:06;98253.09;;;0.70;72.77
49178;BME280;35016;55.674;37.468;2023-02-03T00:13:33;98250.44;;;0.70;72.85
49178;BME280;35016;55.674;37.468;2023-02-03T00:16:00;98253.91;;;0.70;73.02
49178;BME280;35016;55.674;37.468;2023-02-03T00:18:27;98250.44;;;0.70;72.90
49178;BME280;35016;55.674;37.468;2023-02-03T00:20:54;98253.69;;;0.72;72.63
49178;BME280;35016;55.674;37.468;2023-02-03T00:23:21;98246.25;;;0.74;72.99
49178;BME280;35016;55.674;37.468;2023-02-03T00:25:48;98254.50;;;0.72;72.58
49178;BME280;35016;55.674;37.468;2023-02-03T00:28:15;98260.06;;;0.71;72.99
49178;BME280;35016;55.674;37.468;2023-02-03T00:30:42;98261.09;;;0.70;72.79
49178;BME280;35016;55.674;37.468;2023-02-03T00:33:09;98258.44;;;0.70;72.52
49178;BME280;35016;55.674;37.468;2023-02-03T00:35:37;98253.31;;;0.68;72.98
49178;BME280;35016;55.674;37.468;2023-02-03T00:38:03;98257.03;;;0.67;72.81
49178;BME280;35016;55.674;37.468;2023-02-03T00:40:30;98248.66;;;0.64;73.02
49178;BME280;35016;55.674;37.468;2023-02-03T00:42:57;98252.59;;;0.61;72.45
49178;BME280;35016;55.674;37.468;2023-02-03T00:45:24;98256.53;;;0.58;72.92
49178;BME280;35016;55.674;37.468;2023-02-03T00:47:51;98251.41;;;0.57;72.62
49178;BME280;35016;55.674;37.468;2023-02-03T00:50:18;98252.03;;;0.59;72.69
49178;BME280;35016;55.674;37.468;2023-02-03T00:52:45;98250.75;;;0.61;72.91
49178;BME280;35016;55.674;37.468;2023-02-03T00:55:12;98260.16;;;0.64;72.63
49178;BME280;35016;55.674;37.468;2023-02-03T00:57:39;98252.38;;;0.63;72.70
49178;BME280;35016;55.674;37.468;2023-02-03T01:00:06;98252.38;;;0.63;72.80
49178;BME280;35016;55.674;37.468;2023-02-03T01:02:34;98253.41;;;0.61;72.65
49178;BME280;35016;55.674;37.468;2023-02-03T01:05:01;98248.91;;;0.62;72.60
49178;BME280;35016;55.674;37.468;2023-02-03T01:07:30;98247.28;;;0.61;72.89
49178;BME280;35016;55.674;37.468;2023-02-03T01:09:57;98250.97;;;0.60;72.59
49178;BME280;35016;55.674;37.468;2023-02-03T01:12:24;98247.50;;;0.59;73.00
49178;BME280;35016;55.674;37.468;2023-02-03T01:14:51;98244.38;;;0.63;73.00
49178;BME280;35016;55.674;37.468;2023-02-03T01:17:18;98243.34;;;0.64;72.64
49178;BME280;35016;55.674;37.468;2023-02-03T01:19:45;98242.28;;;0.65;72.64
49178;BME280;35016;55.674;37.468;2023-02-03T01:22:12;98245.19;;;0.63;73.12
49178;BME280;35016;55.674;37.468;2023-02-03T01:24:39;98241.72;;;0.63;72.97
49178;BME280;35016;55.674;37.468;2023-02-03T01:27:06;98238.22;;;0.62;72.76
49178;BME280;35016;55.674;37.468;2023-02-03T01:29:33;98244.59;;;0.61;72.85
49178;BME280;35016;55.674;37.468;2023-02-03T01:32:00;98240.91;;;0.62;72.72
49178;BME280;35016;55.674;37.468;2023-02-03T01:34:27;98243.09;;;0.65;73.03
49178;BME280;35016;55.674;37.468;2023-02-03T01:36:54;98243.69;;;0.67;72.74
49178;BME280;35016;55.674;37.468;2023-02-03T01:39:20;98248.81;;;0.69;72.81
49178;BME280;35016;55.674;37.468;2023-02-03T01:41:47;98243.47;;;0.69;72.69
49178;BME280;35016;55.674;37.468;2023-02-03T01:47:00;98239.88;;;0.75;72.81
49178;BME280;35016;55.674;37.468;2023-02-03T01:49:30;98242.09;;;0.78;72.94
49178;BME280;35016;55.674;37.468;2023-02-03T01:51:59;98242.22;;;0.83;72.91
49178;BME280;35016;55.674;37.468;2023-02-03T01:54:35;98231.91;;;0.86;73.07
49178;BME280;35016;55.674;37.468;2023-02-03T01:57:05;98234.56;;;0.86;72.85
49178;BME280;35016;55.674;37.468;2023-02-03T01:59:37;98231.91;;;0.86;72.55
49178;BME280;35016;55.674;37.468;2023-02-03T02:02:04;98234.81;;;0.85;72.96
49178;BME280;35016;55.674;37.468;2023-02-03T02:04:42;98229.94;;;0.82;72.96
49178;BME280;35016;55.674;37.468;2023-02-03T02:07:13;98232.25;;;0.78;72.81
49178;BME280;35016;55.674;37.468;2023-02-03T02:09:40;98232.47;;;0.77;72.81
49178;BME280;35016;55.674;37.468;2023-02-03T02:12:08;98234.31;;;0.76;73.08
49178;BME280;35016;55.674;37.468;2023-02-03T02:14:35;98231.88;;;0.75;72.58
49178;BME280;35016;55.674;37.468;2023-02-03T02:17:23;98226.53;;;0.75;72.91
49178;BME280;35016;55.674;37.468;2023-02-03T02:20:03;98233.75;;;0.74;72.87
49178;BME280;35016;55.674;37.468;2023-02-03T02:27:40;98230.84;;;0.76;72.93
49178;BME280;35016;55.674;37.468;2023-02-03T02:30:27;98225.28;;;0.77;72.80
49178;BME280;35016;55.674;37.468;2023-02-03T02:38:49;98226.91;;;0.78;72.91
49178;BME280;35016;55.674;37.468;2023-02-03T02:41:28;98226.22;;;0.83;72.93
49178;BME280;35016;55.674;37.468;2023-02-03T02:43:59;98224.75;;;0.87;73.11
49178;BME280;35016;55.674;37.468;2023-02-03T02:46:32;98226.38;;;0.88;73.18
49178;BME280;35016;55.674;37.468;2023-02-03T02:49:04;98224.63;;;0.93;72.63
49178;BME280;35016;55.674;37.468;2023-02-03T02:51:33;98222.56;;;0.96;72.53
49178;BME280;35016;55.674;37.468;2023-02-03T02:54:03;98230.91;;;0.99;72.67
49178;BME280;35016;55.674;37.468;2023-02-03T02:56:34;98218.97;;;1.02;73.17
49178;BME280;35016;55.674;37.468;2023-02-03T02:59:02;98221.16;;;1.05;72.75
49178;BME280;35016;55.674;37.468;2023-02-03T03:01:32;98218.25;;;1.06;72.90
49178;BME280;35016;55.674;37.468;2023-02-03T03:04:01;98218.03;;;1.08;72.81
49178;BME280;35016;55.674;37.468;2023-02-03T03:06:56;98221.28;;;1.10;72.92
49178;BME280;35016;55.674;37.468;2023-02-03T03:11:50;98228.03;;;1.12;72.67
49178;BME280;35016;55.674;37.468;2023-02-03T03:14:19;98222.69;;;1.12;72.52
49178;BME280;35016;55.674;37.468;2023-02-03T03:16:53;98231.72;;;1.11;72.76
49178;BME280;35016;55.674;37.468;2023-02-03T03:19:24;98225.56;;;1.11;73.06
49178;BME280;35016;55.674;37.468;2023-02-03T03:21:53;98230.69;;;1.12;72.50
49178;BME280;35016;55.674;37.468;2023-02-03T03:24:23;98226.16;;;1.13;72.86
49178;BME280;35016;55.674;37.468;2023-02-03T03:26:54;98228.81;;;1.13;72.88
49178;BME280;35016;55.674;37.468;2023-02-03T03:31:49;98220.59;;;1.14;72.52
49178;BME280;35016;55.674;37.468;2023-02-03T03:34:16;98224.88;;;1.15;72.66
49178;BME280;35016;55.674;37.468;2023-02-03T03:36:51;98230.22;;;1.15;73.00
49178;BME280;35016;55.674;37.468;2023-02-03T03:39:23;98226.75;;;1.15;73.15
49178;BME280;35016;55.674;37.468;2023-02-03T03:44:29;98228.81;;;1.13;73.04
49178;BME280;35016;55.674;37.468;2023-02-03T03:47:02;98224.06;;;1.15;72.56
49178;BME280;35016;55.674;37.468;2023-02-03T03:49:32;98227.56;;;1.15;73.07
49178;BME280;35016;55.674;37.468;2023-02-03T03:52:00;98232.69;;;1.17;72.77
49178;BME280;35016;55.674;37.468;2023-02-03T03:54:30;98230.38;;;1.20;72.89
49178;BME280;35016;55.674;37.468;2023-02-03T03:57:04;98230.94;;;1.22;72.48
49178;BME280;35016;55.674;37.468;2023-02-03T03:59:33;98224.56;;;1.23;72.64
49178;BME280;35016;55.674;37.468;2023-02-03T04:02:01;98222.72;;;1.24;73.27
49178;BME280;35016;55.674;37.468;2023-02-03T04:04:31;98230.72;;;1.24;72.77
49178;BME280;35016;55.674;37.468;2023-02-03T04:06:59;98234.22;;;1.24;72.91
49178;BME280;35016;55.674;37.468;2023-02-03T04:09:26;98226.19;;;1.24;72.63
49178;BME280;35016;55.674;37.468;2023-02-03T04:11:53;98226.78;;;1.27;72.74
49178;BME280;35016;55.674;37.468;2023-02-03T04:14:30;98226.78;;;1.27;72.96
49178;BME280;35016;55.674;37.468;2023-02-03T04:16:58;98226.19;;;1.24;72.83
49178;BME280;35016;55.674;37.468;2023-02-03T04:19:25;98226.19;;;1.24;72.82
49178;BME280;35016;55.674;37.468;2023-02-03T04:21:52;98227.81;;;1.26;73.08
49178;BME280;35016;55.674;37.468;2023-02-03T04:24:19;98240.34;;;1.25;72.84
49178;BME280;35016;55.674;37.468;2023-02-03T04:26:46;98227.00;;;1.25;72.57
49178;BME280;35016;55.674;37.468;2023-02-03T04:29:13;98228.06;;;1.24;72.54
49178;BME280;35016;55.674;37.468;2023-02-03T04:31:40;98231.53;;;1.24;72.89
49178;BME280;35016;55.674;37.468;2023-02-03T04:34:07;98229.44;;;1.27;72.96
49178;BME280;35016;55.674;37.468;2023-02-03T04:36:33;98235.38;;;1.29;72.67
49178;BME280;35016;55.674;37.468;2023-02-03T04:39:00;98229.78;;;1.30;72.89
49178;BME280;35016;55.674;37.468;2023-02-03T04:41:27;98238.63;;;1.31;72.87
49178;BME280;35016;55.674;37.468;2023-02-03T04:43:54;98234.09;;;1.31;73.20
49178;BME280;35016;55.674;37.468;2023-02-03T04:46:21;98229.56;;;1.32;72.65
49178;BME280;35016;55.674;37.468;2023-02-03T04:48:48;98235.47;;;1.34;72.53
49178;BME280;35016;55.674;37.468;2023-02-03T04:51:15;98238.16;;;1.34;72.63
49178;BME280;35016;55.674;37.468;2023-02-03T04:53:42;98229.09;;;1.35;72.86
49178;BME280;35016;55.674;37.468;2023-02-03T04:56:09;98232.34;;;1.37;72.69
49178;BME280;35016;55.674;37.468;2023-02-03T04:58:36;98235.03;;;1.37;73.12
49178;BME280;35016;55.674;37.468;2023-02-03T05:01:07;98236.88;;;1.36;72.77
49178;BME280;35016;55.674;37.468;2023-02-03T05:03:37;98233.63;;;1.34;72.69
49178;BME280;35016;55.674;37.468;2023-02-03T05:06:04;98236.88;;;1.36;72.78
49178;BME280;35016;55.674;37.468;2023-02-03T05:08:31;98235.38;;;1.40;72.85
49178;BME280;35016;55.674;37.468;2023-02-03T05:10:58;98245.00;;;1.41;72.81
49178;BME280;35016;55.674;37.468;2023-02-03T05:13:29;98238.84;;;1.41;72.83
49178;BME280;35016;55.674;37.468;2023-02-03T05:18:53;98230.38;;;1.44;73.05
49178;BME280;35016;55.674;37.468;2023-02-03T05:21:20;98232.38;;;1.48;72.90
49178;BME280;35016;55.674;37.468;2023-02-03T05:23:48;98235.84;;;1.49;72.51
49178;BME280;35016;55.674;37.468;2023-02-03T05:26:18;98232.38;;;1.48;72.96
49178;BME280;35016;55.674;37.468;2023-02-03T05:28:45;98234.22;;;1.48;72.82
49178;BME280;35016;55.674;37.468;2023-02-03T05:31:12;98232.59;;;1.47;73.03
49178;BME280;35016;55.674;37.468;2023-02-03T05:33:39;98229.47;;;1.50;73.15
49178;BME280;35016;55.674;37.468;2023-02-03T05:36:06;98244.78;;;1.54;73.12
49178;BME280;35016;55.674;37.468;2023-02-03T05:38:33;98238.16;;;1.57;72.89
49178;BME280;35016;55.674;37.468;2023-02-03T05:41:00;98240.59;;;1.59;72.63
49178;BME280;35016;55.674;37.468;2023-02-03T05:43:45;98243.84;;;1.61;72.69
49178;BME280;35016;55.674;37.468;2023-02-03T05:46:12;98241.19;;;1.61;72.76
49178;BME280;35016;55.674;37.468;2023-02-03T05:48:42;98243.03;;;1.60;72.97
49178;BME280;35016;55.674;37.468;2023-02-03T05:51:10;98238.75;;;1.59;72.94
49178;BME280;35016;55.674;37.468;2023-02-03T05:53:37;98240.13;;;1.62;72.68
49178;BME280;35016;55.674;37.468;2023-02-03T05:56:04;98240.13;;;1.62;72.53
49178;BME280;35016;55.674;37.468;2023-02-03T05:58:32;98247.09;;;1.63;73.12
49178;BME280;35016;55.674;37.468;2023-02-03T06:00:58;98243.63;;;1.62;72.89
49178;BME280;35016;55.674;37.468;2023-02-03T06:03:25;98247.44;;;1.66;73.01
49178;BME280;35016;55.674;37.468;2023-02-03T06:05:52;98246.97;;;1.69;73.17
49178;BME280;35016;55.674;37.468;2023-02-03T06:08:19;98247.78;;;1.70;73.12
49178;BME280;35016;55.674;37.468;2023-02-03T06:10:46;98246.50;;;1.72;72.81
49178;BME280;35016;55.674;37.468;2023-02-03T06:13:15;98257.00;;;1.74;72.57
49178;BME280;35016;55.674;37.468;2023-02-03T06:15:43;98250.59;;;1.75;73.17
49178;BME280;35016;55.674;37.468;2023-02-03T06:18:13;98242.13;;;1.78;73.05
49178;BME280;35016;55.674;37.468;2023-02-03T06:20:45;98247.22;;;1.79;72.96
49178;BME280;35016;55.674;37.468;2023-02-03T06:23:12;98247.81;;;1.81;73.22
49178;BME280;35016;55.674;37.468;2023-02-03T06:25:41;98249.53;;;1.88;72.61
49178;BME280;35016;55.674;37.468;2023-02-03T06:28:09;98248.25;;;1.90;73.08
49178;BME280;35016;55.674;37.468;2023-02-03T06:30:36;98248.59;;;1.94;73.22
49178;BME280;35016;55.674;37.468;2023-02-03T06:33:03;98235.47;;;1.92;73.05
49178;BME280;35016;55.674;37.468;2023-02-03T06:35:30;98242.44;;;1.93;73.05
49178;BME280;35016;55.674;37.468;2023-02-03T06:37:57;98255.56;;;1.95;72.83
49178;BME280;35016;55.674;37.468;2023-02-03T06:40:25;98258.81;;;1.97;72.96
49178;BME280;35016;55.674;37.468;2023-02-03T06:42:53;98249.19;;;1.96;72.63
49178;BME280;35016;55.674;37.468;2023-02-03T06:45:20;98259.06;;;1.95;72.81
49178;BME280;35016;55.674;37.468;2023-02-03T06:47:48;98254.75;;;1.94;72.63
49178;BME280;35016;55.674;37.468;2023-02-03T06:50:23;98263.94;;;1.98;72.76
49178;BME280;35016;55.674;37.468;2023-02-03T06:52:51;98250.69;;;2.03;72.63
49178;BME280;35016;55.674;37.468;2023-02-03T06:55:18;98254.53;;;2.07;72.77
49178;BME280;35016;55.674;37.468;2023-02-03T06:57:45;98245.44;;;2.08;73.20
49178;BME280;35016;55.674;37.468;2023-02-03T07:00:16;98242.06;;;2.13;72.90
49178;BME280;35016;55.674;37.468;2023-02-03T07:02:52;98253.91;;;2.17;73.22
49178;BME280;35016;55.674;37.468;2023-02-03T07:05:20;98238.44;;;2.19;72.85
49178;BME280;35016;55.674;37.468;2023-02-03T07:07:48;98237.97;;;2.22;72.96
49178;BME280;35016;55.674;37.468;2023-02-03T07:10:15;98248.75;;;2.27;72.72
49178;BME280;35016;55.674;37.468;2023-02-03T07:12:44;98249.09;;;2.31;72.84
49178;BME280;35016;55.674;37.468;2023-02-03T07:15:11;98252.13;;;2.34;72.89
49178;BME280;35016;55.674;37.468;2023-02-03T07:17:38;98255.38;;;2.36;72.73
49178;BME280;35016;55.674;37.468;2023-02-03T07:20:05;98249.81;;;2.38;72.68
49178;BME280;35016;55.674;37.468;2023-02-03T07:22:32;98255.97;;;2.38;72.68
49178;BME280;35016;55.674;37.468;2023-02-03T07:24:59;98251.19;;;2.40;72.57
49178;BME280;35016;55.674;37.468;2023-02-03T07:27:28;98253.38;;;2.43;73.08
49178;BME280;35016;55.674;37.468;2023-02-03T07:29:55;98258.50;;;2.45;72.79
49178;BME280;35016;55.674;37.468;2023-02-03T07:32:22;98245.22;;;2.50;72.52
49178;BME280;35016;55.674;37.468;2023-02-03T07:34:49;98243.69;;;2.54;73.02
49178;BME280;35016;55.674;37.468;2023-02-03T07:37:16;98249.59;;;2.56;72.82
49178;BME280;35016;55.674;37.468;2023-02-03T07:39:43;98237.84;;;2.57;72.95
49178;BME280;35016;55.674;37.468;2023-02-03T07:42:11;98245.06;;;2.57;72.87
49178;BME280;35016;55.674;37.468;2023-02-03T07:44:46;98244.81;;;2.58;72.77
49178;BME280;35016;55.674;37.468;2023-02-03T07:47:18;98242.28;;;2.63;72.53
49178;BME280;35016;55.674;37.468;2023-02-03T07:49:47;98246.19;;;2.72;72.82
49178;BME280;35016;55.674;37.468;2023-02-03T07:52:15;98242.06;;;2.82;72.79
49178;BME280;35016;55.674;37.468;2023-02-03T07:54:42;98242.94;;;2.87;72.73
49178;BME280;35016;55.674;37.468;2023-02-03T07:57:08;98238.75;;;2.91;72.65
49178;BME280;35016;55.674;37.468;2023-02-03T07:59:35;98236.09;;;2.91;72.47
49178;BME280;35016;55.674;37.468;2023-02-03T08:02:02;98230.97;;;2.90;72.52
49178;BME280;35016;55.674;37.468;2023-02-03T08:04:30;98237.97;;;2.91;72.71
49178;BME280;35016;55.674;37.468;2023-02-03T08:06:58;98233.16;;;2.93;72.68
49178;BME280;35016;55.674;37.468;2023-02-03T08:09:25;98239.91;;;2.95;72.77
49178;BME280;35016;55.674;37.468;2023-02-03T08:11:52;98230.50;;;2.93;72.55
49178;BME280;35016;55.674;37.468;2023-02-03T08:14:19;98222.47;;;2.93;72.85
49178;BME280;35016;55.674;37.468;2023-02-03T08:16:45;98223.91;;;3.00;72.79
49178;BME280;35016;55.674;37.468;2023-02-03T08:19:14;98229.44;;;3.10;72.69
49178;BME280;35016;55.674;37.468;2023-02-03T08:21:41;98223.09;;;3.17;72.80
49178;BME280;35016;55.674;37.468;2023-02-03T08:24:08;98229.88;;;3.19;72.64
49178;BME280;35016;55.674;37.468;2023-02-03T08:26:35;98225.31;;;3.20;72.81
49178;BME280;35016;55.674;37.468;2023-02-03T08:29:03;98226.38;;;3.19;72.64
49178;BME280;35016;55.674;37.468;2023-02-03T08:31:30;98227.66;;;3.16;72.55
49178;BME280;35016;55.674;37.468;2023-02-03T08:33:57;98224.09;;;3.10;72.72
49178;BME280;35016;55.674;37.468;2023-02-03T08:36:24;98227.00;;;3.09;72.58
49178;BME280;35016;55.674;37.468;2023-02-03T08:38:51;98225.31;;;3.03;72.61
49178;BME280;35016;55.674;37.468;2023-02-03T08:41:21;98220.09;;;2.96;72.45
49178;BME280;35016;55.674;37.468;2023-02-03T08:43:48;98218.16;;;2.92;72.64
49178;BME280;35016;55.674;37.468;2023-02-03T08:46:17;98224.56;;;2.91;72.90
49178;BME280;35016;55.674;37.468;2023-02-03T08:48:45;98225.94;;;2.93;72.61
49178;BME280;35016;55.674;37.468;2023-02-03T08:51:13;98222.38;;;3.04;72.84
49178;BME280;35016;55.674;37.468;2023-02-03T08:53:41;98220.66;;;3.15;72.87
49178;BME280;35016;55.674;37.468;2023-02-03T08:56:09;98223.78;;;3.24;72.65
49178;BME280;35016;55.674;37.468;2023-02-03T08:58:37;98222.25;;;3.28;72.57
49178;BME280;35016;55.674;37.468;2023-02-03T09:01:12;98220.38;;;3.28;72.65
49178;BME280;35016;55.674;37.468;2023-02-03T09:03:39;98214.75;;;3.30;72.55
49178;BME280;35016;55.674;37.468;2023-02-03T09:06:07;98224.91;;;3.28;72.35
49178;BME280;35016;55.674;37.468;2023-02-03T09:08:34;98224.03;;;3.22;72.48
49178;BME280;35016;55.674;37.468;2023-02-03T09:11:07;98218.00;;;3.15;72.49
49178;BME280;35016;55.674;37.468;2023-02-03T09:13:35;98219.63;;;3.16;72.68
49178;BME280;35016;55.674;37.468;2023-02-03T09:16:04;98214.38;;;3.21;72.67
49178;BME280;35016;55.674;37.468;2023-02-03T09:18:32;98207.53;;;3.30;72.57
49178;BME280;35016;55.674;37.468;2023-02-03T09:21:00;98213.47;;;3.49;72.70
49178;BME280;35016;55.674;37.468;2023-02-03T09:23:28;98220.66;;;3.65;72.51
49178;BME280;35016;55.674;37.468;2023-02-03T09:25:55;98213.25;;;3.72;72.54
49178;BME280;35016;55.674;37.468;2023-02-03T09:28:22;98218.72;;;3.78;72.42
49178;BME280;35016;55.674;37.468;2023-02-03T09:30:49;98209.25;;;3.75;72.47
49178;BME280;35016;55.674;37.468;2023-02-03T09:33:16;98209.75;;;3.72;72.37
49178;BME280;35016;55.674;37.468;2023-02-03T09:35:53;98208.44;;;3.74;72.31
49178;BME280;35016;55.674;37.468;2023-02-03T09:38:27;98223.06;;;3.84;72.40
49178;BME280;35016;55.674;37.468;2023-02-03T09:40:56;98201.69;;;3.89;72.63
49178;BME280;35016;55.674;37.468;2023-02-03T09:46:17;98206.50;;;3.87;72.46
49178;BME280;35016;55.674;37.468;2023-02-03T09:48:46;98203.00;;;3.86;72.09
49178;BME280;35016;55.674;37.468;2023-02-03T09:51:19;98210.47;;;3.84;72.16
49178;BME280;35016;55.674;37.468;2023-02-03T09:53:50;98202.13;;;3.81;72.30
49178;BME280;35016;55.674;37.468;2023-02-03T09:56:25;98210.91;;;3.76;72.17
49178;BME280;35016;55.674;37.468;2023-02-03T09:58:53;98210.00;;;3.70;72.52
49178;BME280;35016;55.674;37.468;2023-02-03T10:01:22;98216.91;;;3.66;72.33
49178;BME280;35016;55.674;37.468;2023-02-03T10:03:59;98209.44;;;3.68;72.53
49178;BME280;35016;55.674;37.468;2023-02-03T10:20:02;98211.97;;;3.97;72.00
49178;BME280;35016;55.674;37.468;2023-02-03T10:22:31;98209.03;;;3.98;72.42
49178;BME280;35016;55.674;37.468;2023-02-03T10:25:02;98211.47;;;4.00;72.39
49178;BME280;35016;55.674;37.468;2023-02-03T10:27:32;98207.72;;;4.01;72.50
49178;BME280;35016;55.674;37.468;2023-02-03T10:30:02;98202.94;;;4.03;72.32
49178;BME280;35016;55.674;37.468;2023-02-03T10:32:31;98196.75;;;4.02;72.03
49178;BME280;35016;55.674;37.468;2023-02-03T10:34:59;98203.44;;;4.00;72.34
49178;BME280;35016;55.674;37.468;2023-02-03T10:37:42;98195.88;;;3.97;72.15
49178;BME280;35016;55.674;37.468;2023-02-03T10:40:13;98200.94;;;3.93;72.45
49178;BME280;35016;55.674;37.468;2023-02-03T10:42:42;98199.56;;;3.91;72.30
49178;BME280;35016;55.674;37.468;2023-02-03T10:45:29;98203.00;;;3.86;72.45
49178;BME280;35016;55.674;37.468;2023-02-03T10:47:59;98199.81;;;3.89;72.33
49178;BME280;35016;55.674;37.468;2023-02-03T10:50:26;98195.25;;;3.90;72.49
49178;BME280;35016;55.674;37.468;2023-02-03T10:53:31;98196.31;;;3.89;72.49
49178;BME280;35016;55.674;37.468;2023-02-03T10:56:01;98194.44;;;3.89;72.42
49178;BME280;35016;55.674;37.468;2023-02-03T10:58:30;98192.59;;;3.90;72.27
49178;BME280;35016;55.674;37.468;2023-02-03T11:03:35;98195.69;;;3.82;72.35
49178;BME280;35016;55.674;37.468;2023-02-03T11:08:35;98191.56;;;3.74;72.19
49178;BME280;35016;55.674;37.468;2023-02-03T11:11:06;98188.06;;;3.73;72.45
49178;BME280;35016;55.674;37.468;2023-02-03T11:13:34;98185.63;;;3.72;72.28
49178;BME280;35016;55.674;37.468;2023-02-03T11:16:17;98180.81;;;3.74;72.29
49178;BME280;35016;55.674;37.468;2023-02-03T11:21:30;98184.16;;;3.81;72.21
49178;BME280;35016;55.674;37.468;2023-02-03T11:29:15;98172.06;;;4.00;72.26
49178;BME280;35016;55.674;37.468;2023-02-03T11:31:45;98181.22;;;4.04;72.03
49178;BME280;35016;55.674;37.468;2023-02-03T11:34:14;98179.13;;;4.07;71.80
49178;BME280;35016;55.674;37.468;2023-02-03T11:36:42;98175.94;;;4.10;72.24
49178;BME280;35016;55.674;37.468;2023-02-03T11:39:16;98175.63;;;4.06;72.34
49178;BME280;35016;55.674;37.468;2023-02-03T11:41:45;98180.19;;;4.06;72.27
49178;BME280;35016;55.674;37.468;2023-02-03T11:46:42;98185.63;;;4.11;71.90
49178;BME280;35016;55.674;37.468;2023-02-03T11:49:33;98183.75;;;4.11;72.13
49178;BME280;35016;55.674;37.468;2023-02-03T11:54:41;98184.72;;;4.27;71.70
49178;BME280;35016;55.674;37.468;2023-02-03T11:57:21;98177.47;;;4.27;72.11
49178;BME280;35016;55.674;37.468;2023-02-03T12:00:45;98171.34;;;4.32;72.16
49178;BME280;35016;55.674;37.468;2023-02-03T12:13:25;98163.00;;;4.28;72.12
49178;BME280;35016;55.674;37.468;2023-02-03T12:25:01;98162.94;;;4.01;71.95
49178;BME280;35016;55.674;37.468;2023-02-03T12:34:37;98156.34;;;3.87;71.80
49178;BME280;35016;55.674;37.468;2023-02-03T12:37:09;98157.66;;;3.85;71.68
49178;BME280;35016;55.674;37.468;2023-02-03T12:39:43;98154.91;;;3.80;71.81
49178;BME280;35016;55.674;37.468;2023-02-03T12:42:17;98154.03;;;3.74;71.74
49178;BME280;35016;55.674;37.468;2023-02-03T12:49:55;98162.19;;;3.62;71.87
49178;BME280;35016;55.674;37.468;2023-02-03T12:52:39;98163.00;;;3.63;71.84
49178;BME280;35016;55.674;37.468;2023-02-03T12:55:19;98157.38;;;3.64;71.80
49178;BME280;35016;55.674;37.468;2023-02-03T13:00:39;98157.13;;;3.66;71.82
49178;BME280;35016;55.674;37.468;2023-02-03T13:03:12;98161.69;;;3.65;72.00
49178;BME280;35016;55.674;37.468;2023-02-03T13:08:21;98159.19;;;3.59;71.67
49178;BME280;35016;55.674;37.468;2023-02-03T13:11:12;98168.78;;;3.55;71.88
49178;BME280;35016;55.674;37.468;2023-02-03T13:14:14;98163.94;;;3.52;71.85
49178;BME280;35016;55.674;37.468;2023-02-03T13:16:44;98156.94;;;3.51;71.73
49178;BME280;35016;55.674;37.468;2023-02-03T13:19:49;98155.88;;;3.52;71.86
49178;BME280;35016;55.674;37.468;2023-02-03T13:22:18;98151.59;;;3.51;71.65
49178;BME280;35016;55.674;37.468;2023-02-03T13:24:55;98160.59;;;3.45;71.78
49178;BME280;35016;55.674;37.468;2023-02-03T13:32:55;98162.19;;;3.24;71.78
49178;BME280;35016;55.674;37.468;2023-02-03T13:38:04;98164.69;;;3.14;72.05
49178;BME280;35016;55.674;37.468;2023-02-03T13:41:46;98162.00;;;3.14;71.73
49178;BME280;35016;55.674;37.468;2023-02-03T13:43:49;98163.53;;;3.09;71.97
49178;BME280;35016;55.674;37.468;2023-02-03T13:46:40;98167.19;;;3.03;71.92
49178;BME280;35016;55.674;37.468;2023-02-03T13:49:09;98165.00;;;3.00;72.07
49178;BME280;35016;55.674;37.468;2023-02-03T13:51:37;98160.63;;;2.94;72.01
49178;BME280;35016;55.674;37.468;2023-02-03T13:54:18;98168.59;;;2.89;71.97
49178;BME280;35016;55.674;37.468;2023-02-03T13:56:53;98166.63;;;2.85;71.95
49178;BME280;35016;55.674;37.468;2023-02-03T13:59:26;98174.81;;;2.78;71.96
49178;BME280;35016;55.674;37.468;2023-02-03T14:10:05;98167.59;;;2.62;72.22
49178;BME280;35016;55.674;37.468;2023-02-03T14:12:34;98167.81;;;2.60;72.15
49178;BME280;35016;55.674;37.468;2023-02-03T14:15:45;98174.19;;;2.59;72.23
49178;BME280;35016;55.674;37.468;2023-02-03T14:18:48;98170.16;;;2.57;72.08
49178;BME280;35016;55.674;37.468;2023-02-03T14:20:50;98180.28;;;2.55;72.06
49178;BME280;35016;55.674;37.468;2023-02-03T14:23:21;98166.56;;;2.51;72.12
49178;BME280;35016;55.674;37.468;2023-02-03T14:25:51;98168.91;;;2.47;72.13
49178;BME280;35016;55.674;37.468;2023-02-03T14:28:22;98163.56;;;2.47;72.30
49178;BME280;35016;55.674;37.468;2023-02-03T14:31:01;98162.50;;;2.48;72.55
49178;BME280;35016;55.674;37.468;2023-02-03T14:34:32;98167.88;;;2.48;72.15
49178;BME280;35016;55.674;37.468;2023-02-03T14:36:32;98164.13;;;2.49;72.21
49178;BME280;35016;55.674;37.468;2023-02-03T14:41:47;98166.25;;;2.47;72.02
49178;BME280;35016;55.674;37.468;2023-02-03T14:57:29;98170.72;;;2.30;72.16
49178;BME280;35016;55.674;37.468;2023-02-03T15:00:00;98164.81;;;2.28;72.34
49178;BME280;35016;55.674;37.468;2023-02-03T15:02:29;98171.44;;;2.26;72.30
49178;BME280;35016;55.674;37.468;2023-02-03T15:05:40;98178.41;;;2.27;72.36
49178;BME280;35016;55.674;37.468;2023-02-03T15:07:50;98172.59;;;2.30;72.55
49178;BME280;35016;55.674;37.468;2023-02-03T15:10:19;98172.94;;;2.33;72.42
49178;BME280;35016;55.674;37.468;2023-02-03T15:12:51;98173.53;;;2.35;72.13
49178;BME280;35016;55.674;37.468;2023-02-03T15:15:19;98176.44;;;2.34;72.29
49178;BME280;35016;55.674;37.468;2023-02-03T15:17:48;98166.19;;;2.31;72.36
49178;BME280;35016;55.674;37.468;2023-02-03T15:22:49;98170.97;;;2.29;72.06
49178;BME280;35016;55.674;37.468;2023-02-03T15:25:17;98170.63;;;2.25;72.02
49178;BME280;35016;55.674;37.468;2023-02-03T15:27:44;98169.25;;;2.23;72.67